createdAt,value
2022-08-17T00:00:42.790Z,82.89
2022-08-17T00:03:22.358Z,82.60
2022-08-17T00:05:54.902Z,82.60
2022-08-17T00:08:27.149Z,83.34
2022-08-17T00:10:56.910Z,82.89
2022-08-17T00:13:29.513Z,83.25
2022-08-17T00:16:00.847Z,82.91
2022-08-17T00:19:01.768Z,83.13
2022-08-17T00:21:25.497Z,82.38
2022-08-17T00:23:55.594Z,82.36
2022-08-17T00:26:43.686Z,82.51
2022-08-17T00:29:20.131Z,82.22
2022-08-17T00:31:50.236Z,82.86
2022-08-17T00:34:19.775Z,83.33
2022-08-17T00:36:50.489Z,83.85
2022-08-17T00:39:19.848Z,84.58
2022-08-17T00:41:49.183Z,85.11
2022-08-17T00:44:18.254Z,84.12
2022-08-17T00:46:48.067Z,83.87
2022-08-17T00:49:19.721Z,83.26
2022-08-17T00:51:54.457Z,83.41
2022-08-17T00:54:28.089Z,83.03
2022-08-17T00:57:01.780Z,83.10
2022-08-17T00:59:35.247Z,82.64
2022-08-17T01:02:05.206Z,82.80
2022-08-17T01:04:34.914Z,83.16
2022-08-17T01:07:06.663Z,83.31
2022-08-17T01:09:36.438Z,82.52
2022-08-17T01:12:09.223Z,82.40
2022-08-17T01:14:39.088Z,82.00
2022-08-17T01:17:09.354Z,82.50
2022-08-17T01:19:41.881Z,82.89
2022-08-17T01:22:21.980Z,83.32
2022-08-17T01:24:57.492Z,83.11
2022-08-17T01:27:27.807Z,82.70
2022-08-17T01:30:00.187Z,82.28
2022-08-17T01:32:30.475Z,82.20
2022-08-17T01:35:01.083Z,82.78
2022-08-17T01:37:36.240Z,83.66
2022-08-17T01:40:10.542Z,83.64
2022-08-17T01:42:43.645Z,82.92
2022-08-17T01:45:17.859Z,82.54
2022-08-17T01:47:47.555Z,83.27
2022-08-17T01:50:19.420Z,82.75
2022-08-17T01:52:53.018Z,82.54
2022-08-17T01:55:27.600Z,82.70
2022-08-17T01:57:58.142Z,83.23
2022-08-17T02:00:46.908Z,83.39
2022-08-17T02:03:19.702Z,82.76
2022-08-17T02:05:50.286Z,83.05
2022-08-17T02:08:38.911Z,82.99
2022-08-17T02:11:13.875Z,82.29
2022-08-17T02:13:43.202Z,82.25
2022-08-17T02:16:13.417Z,81.94
2022-08-17T02:18:42.879Z,82.74
2022-08-17T02:21:12.401Z,82.33
2022-08-17T02:23:47.479Z,81.86
2022-08-17T02:26:25.924Z,82.14
2022-08-17T02:28:55.958Z,81.78
2022-08-17T02:31:25.514Z,81.94
2022-08-17T02:34:00.435Z,82.51
2022-08-17T02:36:35.420Z,81.96
2022-08-17T02:39:08.297Z,82.03
2022-08-17T02:41:38.304Z,82.14
2022-08-17T02:44:08.100Z,82.92
2022-08-17T02:46:37.093Z,82.95
2022-08-17T02:49:07.058Z,82.06
2022-08-17T02:51:36.517Z,82.16
2022-08-17T02:54:41.131Z,81.95
2022-08-17T02:56:56.585Z,82.58
2022-08-17T02:59:25.525Z,82.48
2022-08-17T03:01:54.580Z,82.26
2022-08-17T03:04:24.152Z,83.19
2022-08-17T03:06:53.210Z,83.40
2022-08-17T03:09:23.670Z,83.63
2022-08-17T03:16:46.818Z,82.78
2022-08-17T03:19:16.536Z,82.95
2022-08-17T03:21:45.720Z,83.22
2022-08-17T03:24:15.374Z,83.01
2022-08-17T03:26:48.827Z,82.95
2022-08-17T03:29:19.360Z,83.71
2022-08-17T03:31:49.305Z,83.29
2022-08-17T03:34:19.643Z,82.90
2022-08-17T03:36:48.975Z,82.36
2022-08-17T03:39:18.306Z,83.20
2022-08-17T03:41:48.818Z,83.17
2022-08-17T03:44:17.927Z,82.46
2022-08-17T03:47:05.071Z,82.13
2022-08-17T03:49:51.700Z,82.14
2022-08-17T03:52:38.198Z,82.21
2022-08-17T03:55:36.383Z,81.85
2022-08-17T03:58:07.260Z,81.34
2022-08-17T04:00:39.758Z,81.45
2022-08-17T04:03:09.526Z,81.74
2022-08-17T04:05:38.559Z,81.73
2022-08-17T04:08:09.842Z,83.40
2022-08-17T04:10:44.784Z,83.43
2022-08-17T04:13:15.596Z,82.41
2022-08-17T04:15:53.809Z,82.53
2022-08-17T04:18:22.828Z,81.64
2022-08-17T04:20:51.734Z,81.98
2022-08-17T04:23:21.606Z,81.61
2022-08-17T04:25:53.957Z,82.53
2022-08-17T04:28:24.848Z,81.67
2022-08-17T04:30:54.081Z,82.34
2022-08-17T04:33:25.156Z,81.84
2022-08-17T04:35:56.818Z,81.44
2022-08-17T04:38:33.303Z,80.38
2022-08-17T04:41:20.576Z,80.13
2022-08-17T04:43:56.149Z,79.93
2022-08-17T04:46:27.459Z,80.49
2022-08-17T04:48:58.788Z,80.58
2022-08-17T04:51:30.295Z,79.36
2022-08-17T04:54:01.343Z,79.75
2022-08-17T04:56:31.824Z,80.11
2022-08-17T04:59:04.622Z,79.90
2022-08-17T05:01:36.238Z,79.56
2022-08-17T05:04:33.006Z,78.57
2022-08-17T05:06:57.142Z,78.69
2022-08-17T05:09:26.103Z,78.01
2022-08-17T05:11:55.385Z,78.28
2022-08-17T05:14:32.307Z,78.18
2022-08-17T05:17:07.415Z,78.59
2022-08-17T05:19:41.303Z,78.25
2022-08-17T05:22:10.358Z,77.71
2022-08-17T05:24:43.741Z,77.65
2022-08-17T05:27:23.669Z,77.28
2022-08-17T05:29:54.307Z,77.40
2022-08-17T05:32:38.804Z,77.69
2022-08-17T05:35:10.227Z,77.39
2022-08-17T05:37:39.394Z,77.54
2022-08-17T05:40:10.774Z,76.88
2022-08-17T05:42:40.126Z,77.38
2022-08-17T05:45:12.188Z,76.94
2022-08-17T05:47:42.047Z,75.96
2022-08-17T05:50:18.099Z,76.22
2022-08-17T05:52:57.243Z,76.61
2022-08-17T05:55:41.100Z,75.93
2022-08-17T05:58:20.054Z,76.56
2022-08-17T06:00:59.136Z,76.19
2022-08-17T06:03:40.052Z,75.59
2022-08-17T06:06:31.331Z,75.53
2022-08-17T06:09:26.644Z,75.73
2022-08-17T06:12:19.825Z,75.21
2022-08-17T06:15:05.358Z,76.10
2022-08-17T06:17:36.985Z,75.32
2022-08-17T06:20:11.602Z,74.20
2022-08-17T06:22:46.478Z,74.27
2022-08-17T06:25:18.022Z,74.03
2022-08-17T06:27:53.479Z,73.56
2022-08-17T06:30:25.950Z,72.00
2022-08-17T06:33:09.534Z,71.87
2022-08-17T06:35:46.130Z,71.35
2022-08-17T06:38:37.105Z,70.41
2022-08-17T06:41:16.705Z,69.53
2022-08-17T06:43:57.056Z,68.04
2022-08-17T06:46:36.138Z,68.17
2022-08-17T06:49:20.030Z,67.44
2022-08-17T06:51:55.522Z,69.40
2022-08-17T06:54:35.081Z,68.09
2022-08-17T06:57:14.612Z,67.47
2022-08-17T06:59:56.288Z,67.15
2022-08-17T07:02:53.254Z,64.62
2022-08-17T07:05:31.958Z,65.50
2022-08-17T07:08:09.361Z,64.11
2022-08-17T07:10:42.672Z,63.32
2022-08-17T07:13:25.715Z,62.22
2022-08-17T07:16:01.191Z,62.99
2022-08-17T07:18:33.257Z,60.73
2022-08-17T07:21:14.198Z,60.53
2022-08-17T07:29:02.379Z,60.08
2022-08-17T07:31:33.727Z,59.33
2022-08-17T07:34:08.052Z,59.07
2022-08-17T07:36:39.070Z,57.65
2022-08-17T07:39:08.053Z,58.04
2022-08-17T07:41:57.840Z,57.51
2022-08-17T07:44:28.697Z,60.28
2022-08-17T07:47:15.677Z,56.75
2022-08-17T07:49:46.927Z,57.58
2022-08-17T07:52:51.217Z,55.44
2022-08-17T07:55:30.689Z,54.34
2022-08-17T07:58:01.884Z,54.36
2022-08-17T08:00:33.051Z,55.08
2022-08-17T08:03:13.624Z,55.76
2022-08-17T08:05:52.265Z,53.58
2022-08-17T08:08:28.286Z,53.10
2022-08-17T08:11:06.644Z,53.63
2022-08-17T08:13:40.506Z,52.17
2022-08-17T08:16:26.043Z,52.45
2022-08-17T08:18:58.460Z,53.40
2022-08-17T08:21:36.753Z,51.09
2022-08-17T08:24:36.753Z,51.52
2022-08-17T08:27:18.322Z,52.00
2022-08-17T08:29:56.237Z,53.16
2022-08-17T08:32:43.032Z,51.12
2022-08-17T08:35:22.882Z,50.20
2022-08-17T08:37:59.578Z,50.90
2022-08-17T08:40:51.563Z,50.07
2022-08-17T08:43:31.747Z,50.35
2022-08-17T08:46:09.154Z,49.24
2022-08-17T08:49:11.880Z,48.80
2022-08-17T08:51:51.685Z,51.07
2022-08-17T08:54:36.873Z,49.66
2022-08-17T08:57:25.513Z,50.47
2022-08-17T09:00:16.000Z,50.80
2022-08-17T09:03:09.020Z,49.65
2022-08-17T09:06:03.802Z,50.36
2022-08-17T09:08:45.879Z,51.37
2022-08-17T09:11:25.830Z,48.99
2022-08-17T09:14:21.798Z,49.07
2022-08-17T09:17:04.141Z,50.23
2022-08-17T09:19:39.356Z,48.47
2022-08-17T09:22:20.101Z,50.15
2022-08-17T09:24:57.227Z,50.16
2022-08-17T09:27:34.113Z,47.77
2022-08-17T09:30:10.204Z,47.62
2022-08-17T09:32:42.589Z,48.04
2022-08-17T09:35:19.447Z,46.65
2022-08-17T09:38:01.676Z,47.79
2022-08-17T09:40:39.529Z,48.77
2022-08-17T09:43:14.140Z,48.30
2022-08-17T09:45:50.757Z,47.50
2022-08-17T09:48:27.616Z,46.93
2022-08-17T09:51:06.468Z,47.17
2022-08-17T09:53:38.976Z,46.66
2022-08-17T09:56:26.089Z,48.00
2022-08-17T09:59:16.993Z,45.41
2022-08-17T10:01:52.323Z,45.80
2022-08-17T10:04:42.189Z,46.99
2022-08-17T10:07:19.321Z,45.44
2022-08-17T10:09:58.949Z,46.15
2022-08-17T10:12:39.620Z,44.00
2022-08-17T10:15:23.735Z,43.34
2022-08-17T10:18:10.117Z,42.09
2022-08-17T10:20:47.938Z,41.44
2022-08-17T10:23:39.695Z,43.68
2022-08-17T10:26:16.148Z,41.26
2022-08-17T10:28:51.064Z,39.19
2022-08-17T10:31:34.756Z,39.56
2022-08-17T10:34:22.872Z,39.76
2022-08-17T10:37:00.459Z,37.43
2022-08-17T10:39:52.043Z,38.56
2022-08-17T10:42:30.862Z,33.35
2022-08-17T10:45:07.911Z,30.42
2022-08-17T10:48:05.291Z,32.55
2022-08-17T10:50:58.442Z,29.66
2022-08-17T10:53:55.297Z,27.67
2022-08-17T10:56:40.075Z,28.75
2022-08-17T10:59:09.799Z,27.98
2022-08-17T11:02:14.013Z,27.30
2022-08-17T11:04:57.391Z,27.81
2022-08-17T11:07:43.888Z,27.13
2022-08-17T11:10:42.259Z,24.90
2022-08-17T11:13:21.805Z,26.83
2022-08-17T11:16:08.127Z,27.61
2022-08-17T11:19:11.783Z,27.59
2022-08-17T11:22:07.551Z,26.80
2022-08-17T11:24:40.385Z,28.56
2022-08-17T11:27:30.985Z,25.47
2022-08-17T11:30:03.342Z,26.88
2022-08-17T11:32:47.477Z,28.35
2022-08-17T11:35:37.071Z,24.21
2022-08-17T11:38:25.437Z,24.26
2022-08-17T11:41:12.836Z,22.40
2022-08-17T11:44:05.981Z,22.33
2022-08-17T11:47:08.845Z,23.03
2022-08-17T11:50:11.826Z,23.94
2022-08-17T11:52:47.062Z,20.37
2022-08-17T11:56:01.925Z,18.95
2022-08-17T11:58:42.100Z,20.21
2022-08-17T12:01:13.631Z,19.57
2022-08-17T12:03:57.091Z,20.15
2022-08-17T12:06:47.783Z,20.01
2022-08-17T12:09:21.671Z,19.54
2022-08-17T12:12:13.054Z,20.86
2022-08-17T12:15:11.503Z,21.19
2022-08-17T12:17:43.711Z,19.04
2022-08-17T12:20:17.808Z,20.48
2022-08-17T12:22:56.489Z,19.75
2022-08-17T12:25:33.084Z,17.92
2022-08-17T12:28:06.086Z,18.69
2022-08-17T12:30:38.780Z,18.26
2022-08-17T12:33:25.750Z,20.95
2022-08-17T12:36:04.038Z,21.31
2022-08-17T12:38:36.198Z,20.65
2022-08-17T12:41:22.969Z,18.24
2022-08-17T12:44:01.793Z,18.19
2022-08-17T12:46:35.867Z,17.61
2022-08-17T12:49:18.207Z,18.35
2022-08-17T12:51:49.062Z,20.59
2022-08-17T12:54:31.665Z,20.17
2022-08-17T12:57:06.616Z,21.55
2022-08-17T12:59:41.023Z,19.43
2022-08-17T13:02:23.482Z,21.61
2022-08-17T13:04:53.171Z,21.10
2022-08-17T13:07:43.443Z,20.16
2022-08-17T13:10:19.720Z,18.89
2022-08-17T13:12:50.898Z,19.85
2022-08-17T13:15:26.901Z,19.50
2022-08-17T13:18:07.500Z,20.26
2022-08-17T13:20:38.508Z,19.99
2022-08-17T13:23:12.604Z,19.47
2022-08-17T13:25:42.498Z,18.10
2022-08-17T13:28:35.692Z,20.53
2022-08-17T13:31:33.551Z,19.90
2022-08-17T13:34:18.834Z,21.08
2022-08-17T13:36:50.794Z,20.09
2022-08-17T13:39:22.794Z,21.50
2022-08-17T13:41:52.867Z,19.35
2022-08-17T13:44:39.491Z,20.70
2022-08-17T13:47:19.428Z,21.96
2022-08-17T13:49:50.545Z,22.26
2022-08-17T13:52:38.803Z,22.51
2022-08-17T13:55:16.670Z,22.75
2022-08-17T13:57:48.097Z,21.25
2022-08-17T14:00:29.921Z,20.05
2022-08-17T14:02:59.397Z,22.24
2022-08-17T14:05:31.456Z,22.42
2022-08-17T14:08:06.712Z,22.79
2022-08-17T14:10:36.688Z,22.97
2022-08-17T14:13:06.978Z,24.24
2022-08-17T14:15:54.809Z,24.08
2022-08-17T14:18:50.669Z,23.50
2022-08-17T14:21:16.741Z,23.96
2022-08-17T14:23:49.955Z,24.33
2022-08-17T14:26:24.612Z,23.64
2022-08-17T14:28:56.262Z,23.55
2022-08-17T14:31:27.648Z,22.92
2022-08-17T14:33:59.148Z,22.90
2022-08-17T14:36:31.276Z,23.55
2022-08-17T14:39:00.944Z,23.35
2022-08-17T14:41:30.469Z,24.06
2022-08-17T14:43:59.602Z,23.85
2022-08-17T14:46:29.249Z,24.18
2022-08-17T14:48:59.760Z,23.73
2022-08-17T14:51:31.954Z,24.19
2022-08-17T14:54:00.959Z,25.32
2022-08-17T14:56:31.807Z,26.65
2022-08-17T14:59:07.683Z,26.75
2022-08-17T15:01:37.173Z,27.12
2022-08-17T15:04:07.078Z,28.16
2022-08-17T15:06:38.826Z,28.01
2022-08-17T15:09:08.361Z,25.73
2022-08-17T15:11:37.856Z,27.29
2022-08-17T15:14:07.555Z,26.64
2022-08-17T15:16:37.883Z,27.22
2022-08-17T15:19:08.892Z,27.32
2022-08-17T15:21:39.933Z,28.50
2022-08-17T15:24:09.848Z,28.01
2022-08-17T15:26:39.219Z,32.71
2022-08-17T15:29:11.763Z,33.29
2022-08-17T15:31:41.259Z,31.70
2022-08-17T15:34:10.400Z,33.17
2022-08-17T15:36:41.413Z,30.54
2022-08-17T15:39:19.703Z,32.18
2022-08-17T15:41:58.866Z,31.53
2022-08-17T15:44:30.077Z,31.95
2022-08-17T15:47:01.921Z,32.50
2022-08-17T15:49:31.545Z,33.46
2022-08-17T15:52:02.098Z,34.52
2022-08-17T15:54:31.623Z,33.90
2022-08-17T15:57:04.221Z,35.04
2022-08-17T15:59:33.987Z,34.63
2022-08-17T16:03:15.106Z,37.64
2022-08-17T16:04:54.142Z,36.74
2022-08-17T16:07:26.867Z,36.91
2022-08-17T16:09:56.745Z,36.83
2022-08-17T16:12:26.519Z,39.65
2022-08-17T16:14:58.425Z,41.13
2022-08-17T16:17:38.935Z,41.13
2022-08-17T16:20:20.108Z,41.86
2022-08-17T16:22:52.294Z,43.71
2022-08-17T16:25:47.195Z,43.79
2022-08-17T16:28:15.640Z,44.03
2022-08-17T16:30:45.467Z,46.50
2022-08-17T16:33:16.699Z,45.60
2022-08-17T16:35:45.987Z,46.52
2022-08-17T16:38:16.557Z,48.09
2022-08-17T16:40:45.858Z,48.83
2022-08-17T16:43:15.365Z,47.38
2022-08-17T16:45:48.657Z,47.83
2022-08-17T16:48:20.755Z,48.27
2022-08-17T16:51:00.354Z,50.09
2022-08-17T16:53:34.884Z,50.73
2022-08-17T16:56:05.140Z,51.51
2022-08-17T16:58:35.198Z,51.31
2022-08-17T17:01:05.639Z,51.72
2022-08-17T17:03:35.862Z,52.15
2022-08-17T17:06:15.893Z,51.84
2022-08-17T17:08:53.095Z,51.69
2022-08-17T17:11:29.557Z,51.81
2022-08-17T17:14:02.141Z,52.74
2022-08-17T17:16:45.707Z,53.04
2022-08-17T17:19:34.671Z,54.71
2022-08-17T17:22:16.302Z,53.67
2022-08-17T17:25:02.207Z,54.61
2022-08-17T17:27:38.919Z,56.37
2022-08-17T17:30:13.355Z,56.36
2022-08-17T17:32:50.786Z,57.61
2022-08-17T17:35:26.142Z,57.86
2022-08-17T17:37:58.354Z,60.31
2022-08-17T17:40:36.831Z,60.29
2022-08-17T17:43:34.909Z,60.45
2022-08-17T17:46:26.625Z,60.62
2022-08-17T17:48:53.261Z,62.49
2022-08-17T17:51:54.790Z,62.37
2022-08-17T17:54:35.063Z,62.10
2022-08-17T17:57:21.373Z,63.77
2022-08-17T18:00:01.621Z,66.02
2022-08-17T18:02:58.147Z,67.05
2022-08-17T18:06:06.173Z,68.19
2022-08-17T18:08:48.058Z,68.64
2022-08-17T18:11:35.238Z,69.50
2022-08-17T18:14:29.937Z,69.90
2022-08-17T18:17:01.709Z,70.73
2022-08-17T18:19:32.602Z,71.77
2022-08-17T18:22:13.002Z,71.93
2022-08-17T18:24:48.033Z,72.25
2022-08-17T18:27:24.428Z,73.03
2022-08-17T18:29:58.064Z,74.02
2022-08-17T18:32:35.891Z,73.79
2022-08-17T18:35:27.942Z,75.09
2022-08-17T18:38:20.368Z,74.00
2022-08-17T18:41:01.766Z,75.52
2022-08-17T18:43:43.757Z,76.73
2022-08-17T18:46:37.695Z,76.55
2022-08-17T18:49:25.566Z,76.49
2022-08-17T18:52:12.527Z,76.61
2022-08-17T18:54:42.845Z,77.15
2022-08-17T18:57:13.793Z,77.66
2022-08-17T18:59:48.352Z,77.73
2022-08-17T19:02:38.787Z,78.52
2022-08-17T19:05:18.558Z,78.63
2022-08-17T19:07:50.117Z,78.83
2022-08-17T19:10:24.574Z,78.99
2022-08-17T19:13:00.890Z,78.48
2022-08-17T19:15:35.844Z,78.89
2022-08-17T19:18:15.469Z,78.41
2022-08-17T19:20:48.869Z,79.19
2022-08-17T19:23:25.128Z,79.65
2022-08-17T19:25:58.581Z,79.79
2022-08-17T19:28:34.913Z,79.42
2022-08-17T19:31:11.243Z,78.86
2022-08-17T19:33:42.389Z,78.92
2022-08-17T19:36:37.087Z,78.62
2022-08-17T19:39:16.939Z,78.50
2022-08-17T19:41:56.164Z,79.82
2022-08-17T19:44:43.413Z,79.07
2022-08-17T19:47:43.199Z,78.95
2022-08-17T19:50:24.745Z,79.63
2022-08-17T19:53:03.255Z,81.11
2022-08-17T19:55:46.435Z,80.88
2022-08-17T19:58:32.982Z,80.07
2022-08-17T20:01:08.567Z,80.60
2022-08-17T20:03:51.782Z,79.98
2022-08-17T20:06:24.645Z,79.93
2022-08-17T20:09:01.034Z,80.24
2022-08-17T20:11:41.411Z,80.60
2022-08-17T20:14:15.745Z,81.06
2022-08-17T20:16:45.951Z,80.95
2022-08-17T20:19:23.678Z,80.38
2022-08-17T20:22:01.365Z,81.06
2022-08-17T20:24:40.313Z,80.68
2022-08-17T20:27:18.073Z,80.62
2022-08-17T20:30:33.158Z,80.39
2022-08-17T20:33:04.086Z,80.01
2022-08-17T20:35:35.502Z,80.52
2022-08-17T20:38:10.574Z,80.94
2022-08-17T20:40:41.577Z,80.65
2022-08-17T20:43:44.898Z,80.09
2022-08-17T20:46:44.317Z,80.16
2022-08-17T20:49:41.546Z,79.73
2022-08-17T20:52:15.534Z,80.78
2022-08-17T20:54:50.293Z,79.89
2022-08-17T20:57:47.456Z,80.81
2022-08-17T21:00:42.766Z,81.34
2022-08-17T21:03:50.930Z,82.24
2022-08-17T21:06:24.171Z,83.09
2022-08-17T21:08:59.972Z,82.41
2022-08-17T21:12:04.926Z,81.63
2022-08-17T21:14:59.763Z,81.49
2022-08-17T21:17:44.040Z,81.24
2022-08-17T21:20:32.566Z,82.19
2022-08-17T21:23:30.947Z,82.36
2022-08-17T21:26:12.119Z,82.41
2022-08-17T21:29:00.728Z,81.84
2022-08-17T21:31:34.210Z,81.79
2022-08-17T21:34:29.788Z,81.51
2022-08-17T21:37:29.945Z,81.79
2022-08-17T21:40:02.325Z,82.29
2022-08-17T21:42:37.484Z,81.86
2022-08-17T21:45:20.842Z,81.46
2022-08-17T21:47:52.320Z,81.70
2022-08-17T21:50:25.927Z,81.91
2022-08-17T21:53:02.357Z,81.46
2022-08-17T21:55:34.521Z,81.48
2022-08-17T21:58:14.692Z,81.82
2022-08-17T22:00:47.799Z,82.85
2022-08-17T22:03:26.036Z,82.88
2022-08-17T22:05:55.749Z,82.65
2022-08-17T22:08:26.512Z,81.99
2022-08-17T22:11:02.925Z,82.09
2022-08-17T22:13:32.715Z,81.87
2022-08-17T22:16:28.672Z,81.06
2022-08-17T22:19:00.154Z,80.84
2022-08-17T22:21:29.542Z,80.89
2022-08-17T22:24:04.291Z,81.13
2022-08-17T22:27:00.663Z,81.15
2022-08-17T22:29:43.975Z,80.00
2022-08-17T22:32:39.652Z,81.43
2022-08-17T22:35:31.541Z,81.54
2022-08-17T22:38:34.034Z,81.42
2022-08-17T22:41:34.628Z,81.12
2022-08-17T22:44:15.226Z,82.09
2022-08-17T22:46:54.634Z,81.73
2022-08-17T22:49:29.315Z,80.83
2022-08-17T22:52:08.912Z,80.45
2022-08-17T22:54:55.922Z,81.62
2022-08-17T22:57:52.294Z,81.81
2022-08-17T23:00:39.069Z,82.45
2022-08-17T23:03:14.843Z,81.68
2022-08-17T23:05:49.861Z,81.37
2022-08-17T23:08:21.448Z,81.67
2022-08-17T23:10:51.431Z,81.04
2022-08-17T23:13:21.541Z,80.78
2022-08-17T23:15:52.342Z,81.65
2022-08-17T23:18:23.534Z,81.98
2022-08-17T23:20:54.708Z,81.57
2022-08-17T23:23:28.050Z,81.07
2022-08-17T23:25:57.319Z,80.85
2022-08-17T23:28:26.518Z,81.30
2022-08-17T23:30:56.394Z,80.95
2022-08-17T23:33:31.054Z,80.76
2022-08-17T23:36:02.258Z,80.76
2022-08-17T23:38:33.142Z,80.66
2022-08-17T23:41:09.743Z,81.65
2022-08-17T23:43:39.411Z,81.37
2022-08-17T23:46:08.957Z,81.10
2022-08-17T23:48:38.581Z,81.76
2022-08-17T23:51:13.664Z,81.63
2022-08-17T23:53:46.429Z,81.34
2022-08-17T23:56:16.782Z,81.10
2022-08-17T23:58:46.610Z,81.15
